createdAt,value
2017-06-24T10:38:56.899Z,34.97
2017-06-24T10:40:12.559Z,34.97
2017-06-24T10:41:28.036Z,35.46
2017-06-24T10:42:43.605Z,35.06
2017-06-24T10:43:59.345Z,35.43
2017-06-24T10:45:14.758Z,35.9
2017-06-24T10:46:28.891Z,35.12
2017-06-24T10:47:43.017Z,35.49
2017-06-24T10:48:57.339Z,35.61
2017-06-24T10:50:12.449Z,35.71
2017-06-24T10:51:27.875Z,35.22
2017-06-24T10:52:43.595Z,35.53
2017-06-24T10:53:59.409Z,35.35
2017-06-24T10:55:14.864Z,35.16
2017-06-24T10:56:30.527Z,35.36
2017-06-24T10:57:45.964Z,35.46
2017-06-24T10:59:01.915Z,35.36
2017-06-24T11:00:17.376Z,35.64
2017-06-24T11:01:32.848Z,36.21
2017-06-24T11:02:48.329Z,36.39
2017-06-24T11:04:03.997Z,37.05
2017-06-24T11:05:19.417Z,37.5
2017-06-24T11:06:34.883Z,38.26
2017-06-24T11:07:50.313Z,38.46
2017-06-24T11:09:06.001Z,39.8
2017-06-24T11:10:21.442Z,39.78
2017-06-24T11:11:36.894Z,39.31
2017-06-24T11:12:52.343Z,39.12
2017-06-24T11:14:08.689Z,37.58
2017-06-24T11:15:24.891Z,37.21
2017-06-24T11:16:41.485Z,36.74
2017-06-24T11:17:58.434Z,36.57
2017-06-24T11:19:14.718Z,35.9
2017-06-24T11:20:30.124Z,35.71
2017-06-24T11:21:45.562Z,35.53
2017-06-24T11:23:01.234Z,35.14
2017-06-24T11:24:16.931Z,35.33
2017-06-24T11:25:32.372Z,34.94
2017-06-24T11:26:47.837Z,34.94
2017-06-24T11:28:03.314Z,34.47
2017-06-24T11:29:18.081Z,34.55
2017-06-24T11:30:33.959Z,34.73
2017-06-24T11:31:50.814Z,35.1
2017-06-24T11:33:06.749Z,35.08
2017-06-24T11:34:23.392Z,35.18
2017-06-24T11:35:40.481Z,35.28
2017-06-24T11:36:57.010Z,35.96
2017-06-24T11:38:12.492Z,35.86
2017-06-24T11:39:28.176Z,35.55
2017-06-24T11:40:43.602Z,35.28
2017-06-24T11:41:59.169Z,35.38
2017-06-24T11:43:14.614Z,35.08
2017-06-24T11:44:30.506Z,34.71
2017-06-24T11:45:45.941Z,34.53
2017-06-24T11:47:01.409Z,34.55
2017-06-24T11:48:16.504Z,34.26
2017-06-24T11:49:32.230Z,34.67
2017-06-24T11:50:47.732Z,34.67
2017-06-24T11:52:03.471Z,34.57
2017-06-24T11:53:18.967Z,33.98
2017-06-24T11:54:35.082Z,33.89
2017-06-24T11:55:50.541Z,34.06
2017-06-24T11:57:06.025Z,34.75
2017-06-24T11:58:21.147Z,34.71
2017-06-24T11:59:35.511Z,34.61
2017-06-24T12:00:50.991Z,34.71
2017-06-24T12:02:06.508Z,34.42
2017-06-24T12:03:22.195Z,34.52
2017-06-24T12:04:37.922Z,35.3
2017-06-24T12:05:53.452Z,34.5
2017-06-24T12:07:22.838Z,35.28
2017-06-24T12:08:38.280Z,35.57
2017-06-24T12:09:53.998Z,35.46
2017-06-24T12:11:09.468Z,36.14
2017-06-24T12:12:25.020Z,36.71
2017-06-24T12:13:40.234Z,36.8
2017-06-24T12:14:55.979Z,37.08
2017-06-24T12:16:11.429Z,37.27
2017-06-24T12:17:26.900Z,37.64
2017-06-24T12:18:41.960Z,37.84
2017-06-24T12:19:57.678Z,38.62
2017-06-24T12:21:13.095Z,38.71
2017-06-24T12:22:28.628Z,38.52
2017-06-24T12:23:44.134Z,38.79
2017-06-24T12:25:00.015Z,38.77
2017-06-24T12:26:15.426Z,39.26
2017-06-24T12:27:30.934Z,39.55
2017-06-24T12:28:46.369Z,39.65
2017-06-24T12:30:02.054Z,39.84
2017-06-24T12:31:17.190Z,40.11
2017-06-24T12:32:32.646Z,40.41
2017-06-24T12:33:48.156Z,40.69
2017-06-24T12:35:03.873Z,40.79
2017-06-24T12:36:19.304Z,41.08
2017-06-24T12:37:34.398Z,40.99
2017-06-24T12:38:49.873Z,41.08
2017-06-24T12:40:05.707Z,41.08
2017-06-24T12:41:21.182Z,41.18
2017-06-24T12:42:35.347Z,41.18
2017-06-24T12:43:49.503Z,41.08
2017-06-24T12:45:04.826Z,41.08
2017-06-24T12:46:20.456Z,41.2
2017-06-24T12:47:35.986Z,40.89
2017-06-24T12:48:51.430Z,41.47
2017-06-24T12:50:07.151Z,41.47
2017-06-24T12:51:22.625Z,41.08
2017-06-24T12:52:38.039Z,41.18
2017-06-24T12:53:53.479Z,41.26
2017-06-24T12:55:09.223Z,41.64
2017-06-24T12:56:23.241Z,41.94
2017-06-24T12:57:38.625Z,42.13
2017-06-24T12:58:52.773Z,42.13
2017-06-24T13:00:08.403Z,42.5
2017-06-24T13:01:24.060Z,42.71
2017-06-24T13:02:39.434Z,42.61
2017-06-24T13:03:54.630Z,42.13
2017-06-24T13:05:08.824Z,43.2
2017-06-24T13:06:24.555Z,42.33
2017-06-24T13:07:40.009Z,42.74
2017-06-24T13:08:55.486Z,42.83
2017-06-24T13:10:10.926Z,42.15
2017-06-24T13:11:26.617Z,41.57
2017-06-24T13:14:11.487Z,41.88
2017-06-24T13:15:27.176Z,41.88
2017-06-24T13:16:41.460Z,41.39
2017-06-24T13:17:56.938Z,41.18
2017-06-24T13:19:11.059Z,41.38
2017-06-24T13:20:26.770Z,41.59
2017-06-24T13:21:42.171Z,41.69
2017-06-24T13:22:57.592Z,41.88
2017-06-24T13:24:13.076Z,41.78
2017-06-24T13:25:29.123Z,41.78
2017-06-24T13:26:44.550Z,41.78
2017-06-24T13:27:59.964Z,41.69
2017-06-24T13:29:15.444Z,42.08
2017-06-24T13:30:29.840Z,41.69
2017-06-24T13:31:45.313Z,41.98
2017-06-24T13:33:00.727Z,41.78
2017-06-24T13:34:14.903Z,41.69
2017-06-24T13:35:30.621Z,41.88
2017-06-24T13:36:46.102Z,41.88
2017-06-24T13:38:01.522Z,42.66
2017-06-24T13:39:17.133Z,42.44
2017-06-24T13:40:32.840Z,42.76
2017-06-24T13:41:46.827Z,42.64
2017-06-24T13:43:02.269Z,42.54
2017-06-24T13:44:17.715Z,42.61
2017-06-24T13:45:33.441Z,42.93
2017-06-24T13:46:48.900Z,42.43
2017-06-24T13:48:04.482Z,43.1
2017-06-24T13:49:19.938Z,42.61
2017-06-24T13:50:35.799Z,43.1
2017-06-24T13:51:49.993Z,43.4
2017-06-24T13:53:05.440Z,43.18
2017-06-24T13:54:20.984Z,43.18
2017-06-24T13:55:49.034Z,43.47
2017-06-24T13:57:04.435Z,43.76
2017-06-24T13:58:20.167Z,43.95
2017-06-24T13:59:35.639Z,44.15
2017-06-24T14:00:51.372Z,44.15
2017-06-24T14:02:06.780Z,44.65
2017-06-24T14:03:20.893Z,44.65
2017-06-24T14:04:36.594Z,43.98
2017-06-24T14:05:52.504Z,44.05
2017-06-24T14:07:07.946Z,44.17
2017-06-24T14:08:23.403Z,44.54
2017-06-24T14:09:38.905Z,44.64
2017-06-24T14:11:25.292Z,44.73
2017-06-24T14:12:40.742Z,44.44
2017-06-24T14:13:56.264Z,44.83
2017-06-24T14:15:11.916Z,45.02
2017-06-24T14:16:27.663Z,45.12
2017-06-24T14:17:43.083Z,45.61
2017-06-24T14:18:58.215Z,45.61
2017-06-24T14:20:13.854Z,45.99
2017-06-24T14:21:29.576Z,46.19
2017-06-24T14:22:43.731Z,46.19
2017-06-24T14:23:58.019Z,45.97
2017-06-24T14:25:13.492Z,46.16
2017-06-24T14:26:29.396Z,46.36
2017-06-24T14:27:44.843Z,46.16
2017-06-24T14:29:00.431Z,46.75
2017-06-24T14:30:16.002Z,46.84
2017-06-24T14:31:31.319Z,46.26
2017-06-24T14:32:46.912Z,46.65
2017-06-24T14:34:02.287Z,46.36
2017-06-24T14:35:17.725Z,46.65
2017-06-24T14:36:33.497Z,46.84
2017-06-24T14:37:48.965Z,45.87
2017-06-24T14:39:03.029Z,45.78
2017-06-24T14:40:18.497Z,45.97
2017-06-24T14:41:34.220Z,46.36
2017-06-24T14:42:49.708Z,45.78
2017-06-24T14:44:05.114Z,46.16
2017-06-24T14:45:19.282Z,46.07
2017-06-24T14:46:34.996Z,46.36
2017-06-24T14:47:50.491Z,45.58
2017-06-24T14:49:04.683Z,45.87
2017-06-24T14:50:20.110Z,46.07
2017-06-24T14:51:35.835Z,46.36
2017-06-24T14:52:51.434Z,46.24
2017-06-24T14:54:06.867Z,46.43
2017-06-24T14:55:20.898Z,46.43
2017-06-24T14:56:36.576Z,46.33
2017-06-24T14:57:52.202Z,46.04
2017-06-24T14:59:08.245Z,46.33
2017-06-24T15:00:23.688Z,46.43
2017-06-24T15:01:38.031Z,46.53
2017-06-24T15:02:53.444Z,46.72
2017-06-24T15:04:22.618Z,46.82
2017-06-24T15:05:38.097Z,46.72
2017-06-24T15:06:53.773Z,46.92
2017-06-24T15:08:08.833Z,46.6
2017-06-24T15:09:24.275Z,46.8
2017-06-24T15:10:38.481Z,47.28
2017-06-24T15:11:54.234Z,47.67
2017-06-24T15:13:09.852Z,47.38
2017-06-24T15:14:25.488Z,47.77
2017-06-24T15:15:40.934Z,47.28
2017-06-24T15:16:56.792Z,47.67
2017-06-24T15:18:10.758Z,48.06
2017-06-24T15:19:26.238Z,48.13
2017-06-24T15:20:40.429Z,48.22
2017-06-24T15:21:56.145Z,48.25
2017-06-24T15:23:10.609Z,48.13
2017-06-24T15:24:27.670Z,48.13
2017-06-24T15:25:44.769Z,48.42
2017-06-24T15:27:01.696Z,48.32
2017-06-24T15:28:18.880Z,48.42
2017-06-24T15:29:36.078Z,48.22
2017-06-24T15:30:52.450Z,48.15
2017-06-24T15:32:09.231Z,48.03
2017-06-24T15:33:25.739Z,48.25
2017-06-24T15:34:42.179Z,48.06
2017-06-24T15:35:58.895Z,48.06
2017-06-24T15:37:15.154Z,48.06
2017-06-24T15:38:32.173Z,48.25
2017-06-24T15:39:49.191Z,48.15
2017-06-24T15:41:04.511Z,48.44
2017-06-24T15:42:21.859Z,48.25
2017-06-24T15:43:38.387Z,47.96
2017-06-24T15:44:55.137Z,48.15
2017-06-24T15:46:12.113Z,48.25
2017-06-24T15:47:29.062Z,48.54
2017-06-24T15:48:45.528Z,48.25
2017-06-24T15:50:01.582Z,48.64
2017-06-24T15:51:18.074Z,49.02
2017-06-24T15:52:34.525Z,48.64
2017-06-24T15:53:50.921Z,48.35
2017-06-24T15:55:20.615Z,48.06
2017-06-24T15:56:35.586Z,48.15
2017-06-24T15:57:52.457Z,48.35
2017-06-24T15:59:08.925Z,48.71
2017-06-24T16:00:24.800Z,49.29
2017-06-24T16:01:39.604Z,49.41
2017-06-24T16:02:55.783Z,49.49
2017-06-24T16:04:11.795Z,49.49
2017-06-24T16:05:28.732Z,49.87
2017-06-24T16:06:45.971Z,49.61
2017-06-24T16:08:02.462Z,49.39
2017-06-24T16:09:18.876Z,50.07
2017-06-24T16:10:35.463Z,49.97
2017-06-24T16:11:51.575Z,50.55
2017-06-24T16:13:08.667Z,50.43
2017-06-24T16:14:24.282Z,50.33
2017-06-24T16:15:39.923Z,50.33
2017-06-24T16:16:55.374Z,50.43
2017-06-24T16:18:09.794Z,50.33
2017-06-24T16:19:25.228Z,50.52
2017-06-24T16:20:40.853Z,50.43
2017-06-24T16:21:55.287Z,50.43
2017-06-24T16:23:10.972Z,50.82
2017-06-24T16:24:25.094Z,50.33
2017-06-24T16:25:40.570Z,50.52
2017-06-24T16:26:56.444Z,50.52
2017-06-24T16:28:13.562Z,50.24
2017-06-24T16:29:30.053Z,49.97
2017-06-24T16:30:46.160Z,49.68
2017-06-24T16:32:02.459Z,49.97
2017-06-24T16:33:17.903Z,49.97
2017-06-24T16:34:33.379Z,50.16
2017-06-24T16:35:47.469Z,50.35
2017-06-24T16:37:03.108Z,50.35
2017-06-24T16:38:18.826Z,50.35
2017-06-24T16:39:34.268Z,50.45
2017-06-24T16:40:49.697Z,50.55
2017-06-24T16:42:05.113Z,50.07
2017-06-24T16:43:20.881Z,50.07
2017-06-24T16:44:35.994Z,50.55
2017-06-24T16:45:51.797Z,50.65
2017-06-24T16:47:38.060Z,50.84
2017-06-24T16:48:53.758Z,50.84
2017-06-24T16:50:09.193Z,50.45
2017-06-24T16:51:22.233Z,51.01
2017-06-24T16:52:37.722Z,51.2
2017-06-24T16:53:53.587Z,51.3
2017-06-24T16:55:09.009Z,51.2
2017-06-24T16:56:24.449Z,51.3
2017-06-24T16:57:39.908Z,51.59
2017-06-24T16:58:55.236Z,51.4
2017-06-24T17:00:10.892Z,51.01
2017-06-24T17:01:26.388Z,51.47
2017-06-24T17:02:41.794Z,51.66
2017-06-24T17:03:57.682Z,51.86
2017-06-24T17:05:13.249Z,52.63
2017-06-24T17:06:28.347Z,52.24
2017-06-24T17:07:42.318Z,52.34
2017-06-24T17:08:58.236Z,52.24
2017-06-24T17:10:13.683Z,52.82
2017-06-24T17:11:27.855Z,52.82
2017-06-24T17:12:43.335Z,52.82
2017-06-24T17:15:28.172Z,52.53
2017-06-24T17:16:43.990Z,53.09
2017-06-24T17:17:59.472Z,52.99
2017-06-24T17:19:14.539Z,53.19
2017-06-24T17:20:30.307Z,53.31
2017-06-24T17:21:45.715Z,53.19
2017-06-24T17:23:01.266Z,53.47
2017-06-24T17:24:16.694Z,53.28
2017-06-24T17:25:32.392Z,53.86
2017-06-24T17:26:47.844Z,53.86
2017-06-24T17:28:03.369Z,54.35
2017-06-24T17:29:18.424Z,54.35
2017-06-24T17:30:34.073Z,54.63
2017-06-24T17:31:49.583Z,54.53
2017-06-24T17:33:05.016Z,54.51
2017-06-24T17:34:20.438Z,54.51
2017-06-24T17:35:36.201Z,54.51
2017-06-24T17:36:51.660Z,54.73
2017-06-24T17:38:07.402Z,54.61
2017-06-24T17:39:22.858Z,54.61
2017-06-24T17:40:38.220Z,54.61
2017-06-24T17:41:53.636Z,55.29
2017-06-24T17:43:09.043Z,54.51
2017-06-24T17:44:23.028Z,54.99
2017-06-24T17:45:38.729Z,54.99
2017-06-24T17:46:54.160Z,55.09
2017-06-24T17:48:09.597Z,55.09
2017-06-24T17:49:25.107Z,54.9
2017-06-24T17:50:40.985Z,54.99
2017-06-24T17:51:56.634Z,54.99
2017-06-24T17:53:10.765Z,54.99
2017-06-24T17:54:24.790Z,54.97
2017-06-24T17:55:40.486Z,55.47
2017-06-24T17:56:55.973Z,55.55
2017-06-24T17:58:14.422Z,55.65
2017-06-24T17:59:37.673Z,55.65
2017-06-24T18:00:59.882Z,55.65
2017-06-24T18:02:21.607Z,55.74
2017-06-24T18:03:43.517Z,56.03
2017-06-24T18:05:06.896Z,56.22
2017-06-24T18:06:28.956Z,56.32
2017-06-24T18:07:50.435Z,56.32
2017-06-24T18:09:12.497Z,56.61
2017-06-24T18:10:36.259Z,56.8
2017-06-24T18:11:58.052Z,56.71
2017-06-24T18:13:14.838Z,56.61
2017-06-24T18:14:30.312Z,56.61
2017-06-24T18:15:46.192Z,56.61
2017-06-24T18:17:01.639Z,56.51
2017-06-24T18:18:17.064Z,56.8
2017-06-24T18:19:32.674Z,56.61
2017-06-24T18:20:48.366Z,56.8
2017-06-24T18:22:03.826Z,57.09
2017-06-24T18:23:19.275Z,56.51
2017-06-24T18:24:34.761Z,56.8
2017-06-24T18:25:50.509Z,56.51
2017-06-24T18:27:05.968Z,56.51
2017-06-24T18:28:21.366Z,56.61
2017-06-24T18:29:36.798Z,56.8
2017-06-24T18:30:52.470Z,56.41
2017-06-24T18:32:08.123Z,56.77
2017-06-24T18:33:23.486Z,56.58
2017-06-24T18:34:37.875Z,56.77
2017-06-24T18:35:53.685Z,57.16
2017-06-24T18:37:09.358Z,57.16
2017-06-24T18:38:24.820Z,56.87
2017-06-24T18:39:40.285Z,57.16
2017-06-24T18:40:55.992Z,57.45
2017-06-24T18:42:11.438Z,57.26
2017-06-24T18:43:27.092Z,57.54
2017-06-24T18:44:42.563Z,57.64
2017-06-24T18:45:58.082Z,57.64
2017-06-24T18:47:13.511Z,57.84
2017-06-24T18:48:29.282Z,57.74
2017-06-24T18:49:44.984Z,57.64
2017-06-24T18:51:00.338Z,58.03
2017-06-24T18:52:15.789Z,57.84
2017-06-24T18:53:31.212Z,58.42
2017-06-24T18:54:46.937Z,58.22
2017-06-24T18:56:00.935Z,58.29
2017-06-24T18:57:16.403Z,58.61
2017-06-24T18:58:32.138Z,58.9
2017-06-24T18:59:47.467Z,58.97
2017-06-24T19:01:02.913Z,58.87
2017-06-24T19:02:17.149Z,58.68
2017-06-24T19:03:32.709Z,58.77
2017-06-24T19:04:48.387Z,59.45
2017-06-24T19:06:04.056Z,59.35
2017-06-24T19:07:19.526Z,59.35
2017-06-24T19:08:34.984Z,59.25
2017-06-24T19:09:50.634Z,59.64
2017-06-24T19:11:06.099Z,59.45
2017-06-24T19:12:21.513Z,59.45
2017-06-24T19:13:50.519Z,59.45
2017-06-24T19:15:06.164Z,59.64
2017-06-24T19:16:21.802Z,59.74
2017-06-24T19:17:37.248Z,60.31
2017-06-24T19:18:52.707Z,59.83
2017-06-24T19:20:08.414Z,59.83
2017-06-24T19:21:23.850Z,59.93
2017-06-24T19:22:39.337Z,60.51
2017-06-24T19:23:53.830Z,60.22
2017-06-24T19:25:09.725Z,60.8
2017-06-24T19:26:25.189Z,60.86
2017-06-24T19:27:40.642Z,60.61
2017-06-24T19:28:56.307Z,60.48
2017-06-24T19:30:10.750Z,60.86
2017-06-24T19:31:26.228Z,60.58
2017-06-24T19:32:41.669Z,60.86
2017-06-24T19:33:57.117Z,60.96
2017-06-24T19:35:12.792Z,61.25
2017-06-24T19:36:28.206Z,61.06
2017-06-24T19:37:44.036Z,60.96
2017-06-24T19:38:59.737Z,61.25
2017-06-24T19:40:17.258Z,61.44
2017-06-24T19:41:33.475Z,61.54
2017-06-24T19:42:49.888Z,61.25
2017-06-24T19:44:06.294Z,61.64
2017-06-24T19:45:23.820Z,61.64
2017-06-24T19:46:40.039Z,61.93
2017-06-24T19:47:56.528Z,61.83
2017-06-24T19:49:11.374Z,62.02
2017-06-24T19:50:28.851Z,62.28
2017-06-24T19:51:45.464Z,61.9
2017-06-24T19:53:01.577Z,62.18
2017-06-24T19:54:31.096Z,62.86
2017-06-24T19:55:47.392Z,62.18
2017-06-24T19:57:03.842Z,62.28
2017-06-24T19:58:20.395Z,62.57
2017-06-24T19:59:37.505Z,62.76
2017-06-24T20:00:54.360Z,62.38
2017-06-24T20:02:10.504Z,62.86
2017-06-24T20:03:26.491Z,63.34
2017-06-24T20:04:42.359Z,63.12
2017-06-24T20:05:59.061Z,63.31
2017-06-24T20:07:15.344Z,63.31
2017-06-24T20:08:31.571Z,63.7
2017-06-24T20:09:47.946Z,63.6
2017-06-24T20:11:05.373Z,63.41
2017-06-24T20:12:21.080Z,64.47
2017-06-24T20:13:37.767Z,64.28
2017-06-24T20:14:54.111Z,64.86
2017-06-24T20:16:10.511Z,64.66
2017-06-24T20:17:26.498Z,65.05
2017-06-24T20:18:42.711Z,64.92
2017-06-24T20:19:59.119Z,65.2
2017-06-24T20:21:16.022Z,65.01
2017-06-24T20:22:31.989Z,65.59
2017-06-24T20:23:47.986Z,65.11
2017-06-24T20:25:03.871Z,65.88
2017-06-24T20:26:20.042Z,65.98
2017-06-24T20:27:36.286Z,65.88
2017-06-24T20:28:52.295Z,65.98
2017-06-24T20:30:07.849Z,66.27
2017-06-24T20:31:23.517Z,66.17
2017-06-24T20:32:37.534Z,66.24
2017-06-24T20:33:51.661Z,66.46
2017-06-24T20:35:07.213Z,66.17
2017-06-24T20:36:22.956Z,66.46
2017-06-24T20:37:38.422Z,66.27
2017-06-24T20:38:53.867Z,66.55
2017-06-24T20:40:09.442Z,66.27
2017-06-24T20:41:25.183Z,66.17
2017-06-24T20:42:40.803Z,66.27
2017-06-24T20:43:56.229Z,66.27
2017-06-24T20:45:11.778Z,66.36
2017-06-24T20:46:27.465Z,66.75
2017-06-24T20:47:43.034Z,66.46
2017-06-24T20:48:58.744Z,66.65
2017-06-24T20:50:14.181Z,66.65
2017-06-24T20:51:29.858Z,66.75
2017-06-24T20:52:45.574Z,66.65
2017-06-24T20:54:00.992Z,66.36
2017-06-24T20:55:16.634Z,66.36
2017-06-24T20:56:32.537Z,66.55
2017-06-24T20:57:47.559Z,66.65
2017-06-24T20:59:01.730Z,66.94
2017-06-24T21:00:17.212Z,66.27
2017-06-24T21:01:32.897Z,66.46
2017-06-24T21:02:48.324Z,66.36
2017-06-24T21:04:03.727Z,66.27
2017-06-24T21:05:19.276Z,66.46
2017-06-24T21:06:34.872Z,66.85
2017-06-24T21:07:50.465Z,66.75
2017-06-24T21:09:05.873Z,66.46
2017-06-24T21:10:21.330Z,66.36
2017-06-24T21:11:37.051Z,66.65
2017-06-24T21:12:52.485Z,66.85
2017-06-24T21:14:07.939Z,66.85
2017-06-24T21:15:23.559Z,66.75
2017-06-24T21:16:39.468Z,66.85
2017-06-24T21:17:54.921Z,67.33
2017-06-24T21:19:10.375Z,67.49
2017-06-24T21:20:56.826Z,67.13
2017-06-24T21:22:12.464Z,66.75
2017-06-24T21:23:27.952Z,67.29
2017-06-24T21:26:11.036Z,67
2017-06-24T21:27:26.709Z,67.19
2017-06-24T21:28:42.210Z,67.42
2017-06-24T21:29:57.835Z,67.39
2017-06-24T21:31:12.876Z,67.33
2017-06-24T21:32:28.749Z,67.23
2017-06-24T21:33:44.368Z,67.52
2017-06-24T21:34:59.783Z,67.33
2017-06-24T21:36:15.388Z,67.42
2017-06-24T21:37:31.294Z,67.42
2017-06-24T21:38:46.686Z,67.13
2017-06-24T21:40:02.152Z,67.42
2017-06-24T21:41:17.910Z,66.75
2017-06-24T21:42:33.787Z,66.94
2017-06-24T21:43:49.243Z,66.94
2017-06-24T21:45:03.217Z,66.85
2017-06-24T21:46:18.662Z,66.85
2017-06-24T21:47:34.607Z,66.85
2017-06-24T21:48:50.052Z,66.85
2017-06-24T21:50:05.464Z,66.85
2017-06-24T21:51:20.966Z,66.85
2017-06-24T21:52:36.880Z,66.65
2017-06-24T21:53:52.315Z,67.03
2017-06-24T21:55:07.703Z,66.75
2017-06-24T21:56:23.175Z,66.65
2017-06-24T21:57:37.554Z,66.75
2017-06-24T21:58:52.997Z,67.33
2017-06-24T22:00:08.466Z,67.42
2017-06-24T22:01:23.877Z,67.23
2017-06-24T22:02:39.555Z,66.85
2017-06-24T22:03:55.006Z,67.33
2017-06-24T22:05:10.662Z,66.75
2017-06-24T22:06:26.131Z,66.75
2017-06-24T22:07:41.985Z,67.03
2017-06-24T22:08:57.578Z,66.94
2017-06-24T22:10:11.574Z,66.85
2017-06-24T22:11:26.971Z,67.39
2017-06-24T22:12:42.669Z,67.29
2017-06-24T22:13:58.129Z,67.1
2017-06-24T22:15:13.559Z,67.29
2017-06-24T22:16:29.203Z,67.1
2017-06-24T22:17:43.578Z,67.13
2017-06-24T22:18:58.969Z,67.42
2017-06-24T22:20:14.599Z,67.33
2017-06-24T22:21:30.261Z,67.52
2017-06-24T22:22:45.948Z,67.42
2017-06-24T22:24:01.376Z,67.52
2017-06-24T22:25:16.796Z,67.42
2017-06-24T22:26:32.248Z,67.39
2017-06-24T22:27:47.916Z,67.1
2017-06-24T22:29:03.306Z,67.39
2017-06-24T22:30:18.708Z,67.1
2017-06-24T22:31:34.303Z,67.03
2017-06-24T22:32:49.951Z,67.33
2017-06-24T22:34:04.059Z,67.13
2017-06-24T22:35:19.589Z,67.33
2017-06-24T22:36:35.069Z,66.91
2017-06-24T22:37:50.685Z,67.87
2017-06-24T22:39:06.122Z,67.97
2017-06-24T22:40:21.554Z,67.97
2017-06-24T22:41:37.023Z,67.87
2017-06-24T22:42:52.844Z,67.58
2017-06-24T22:44:08.256Z,67.87
2017-06-24T22:45:23.690Z,67.68
2017-06-24T22:46:38.086Z,67.58
2017-06-24T22:47:53.816Z,67.87
2017-06-24T22:49:09.287Z,67.97
2017-06-24T22:50:24.743Z,67.77
2017-06-24T22:51:38.933Z,67.77
2017-06-24T22:52:54.811Z,67.39
2017-06-24T22:54:10.243Z,67.87
2017-06-24T22:55:25.685Z,67.68
2017-06-24T22:56:41.094Z,68.06
2017-06-24T22:57:56.788Z,68.35
2017-06-24T22:59:12.266Z,67.77
2017-06-24T23:00:27.684Z,68.16
2017-06-24T23:01:43.133Z,68.26
2017-06-24T23:02:58.845Z,68.06
2017-06-24T23:04:14.292Z,68.44
2017-06-24T23:05:29.781Z,68.54
2017-06-24T23:06:43.901Z,68.44
2017-06-24T23:07:59.568Z,68.93
2017-06-24T23:09:14.849Z,68.26
2017-06-24T23:10:30.307Z,68.84
2017-06-24T23:11:45.679Z,69.18
2017-06-24T23:13:00.055Z,69.31
2017-06-24T23:14:15.436Z,69.22
2017-06-24T23:15:29.633Z,68.99
2017-06-24T23:16:43.668Z,69.18
2017-06-24T23:17:59.345Z,69.09
2017-06-24T23:19:13.458Z,68.99
2017-06-24T23:20:26.319Z,68.99
2017-06-24T23:21:41.363Z,69.47
2017-06-24T23:22:54.192Z,69.38
2017-06-24T23:24:09.902Z,69.28
2017-06-24T23:25:23.636Z,69.95
2017-06-24T23:26:39.119Z,69.85
2017-06-24T23:27:54.507Z,69.76
2017-06-24T23:29:10.146Z,69.95
2017-06-24T23:30:25.547Z,69.95
2017-06-24T23:31:40.961Z,69.95
2017-06-24T23:32:53.749Z,70.15
2017-06-24T23:34:09.542Z,70.43
2017-06-24T23:35:24.983Z,69.95
2017-06-24T23:36:40.615Z,70.34
2017-06-24T23:37:56.008Z,70.15
2017-06-24T23:39:11.690Z,70.05
2017-06-24T23:40:27.125Z,70.43
2017-06-24T23:41:42.497Z,70.05
2017-06-24T23:42:57.897Z,69.95
2017-06-24T23:44:12.562Z,69.95
2017-06-24T23:45:28.411Z,70.28
2017-06-24T23:46:42.525Z,70.15
2017-06-24T23:47:57.930Z,70.43
2017-06-24T23:49:13.373Z,70.53
2017-06-24T23:50:28.979Z,70.43
2017-06-24T23:51:44.459Z,70.43
2017-06-24T23:52:59.526Z,70.92
2017-06-24T23:54:14.942Z,70.53
2017-06-24T23:55:30.372Z,70.82
2017-06-24T23:56:45.884Z,70.72
2017-06-24T23:58:01.330Z,71.11
2017-06-24T23:59:16.742Z,71.49
